createdAt,value
2024-04-05T00:00:41.299Z,100
2024-04-05T00:15:41.805Z,100
2024-04-05T00:30:43.237Z,100
2024-04-05T00:45:44.123Z,100
2024-04-05T01:00:45.163Z,100
2024-04-05T01:15:45.798Z,100
2024-04-05T01:30:48.778Z,100
2024-04-05T01:45:48.560Z,100
2024-04-05T02:00:48.245Z,100
2024-04-05T02:15:47.590Z,100
2024-04-05T02:30:50.439Z,100
2024-04-05T02:45:51.246Z,100
2024-04-05T03:00:51.942Z,100
2024-04-05T03:15:51.785Z,100
2024-04-05T03:30:51.027Z,100
2024-04-05T03:45:52.674Z,100
2024-04-05T04:00:53.239Z,100
2024-04-05T04:15:53.777Z,100
2024-04-05T04:30:54.699Z,100
2024-04-05T04:45:55.342Z,100
2024-04-05T04:53:15.773Z,100
2024-04-05T05:08:17.439Z,100
2024-04-05T05:23:17.060Z,100
2024-04-05T05:38:19.243Z,100
2024-04-05T05:53:19.170Z,100
2024-04-05T06:08:20.277Z,100
2024-04-05T06:23:19.719Z,100
2024-04-05T06:38:20.946Z,100
2024-04-05T06:53:23.362Z,100
2024-04-05T07:08:22.616Z,100
2024-04-05T07:23:22.641Z,100
2024-04-05T07:38:24.562Z,100
2024-04-05T07:53:24.134Z,100
2024-04-05T08:08:25.564Z,100
2024-04-05T08:23:28.044Z,100
2024-04-05T08:38:26.556Z,100
2024-04-05T08:53:29.453Z,100
2024-04-05T09:08:30.026Z,100
2024-04-05T09:23:28.700Z,100
2024-04-05T09:38:29.574Z,100
2024-04-05T09:53:30.975Z,100
2024-04-05T10:08:30.541Z,100
2024-04-05T10:23:31.636Z,95.5
2024-04-05T10:38:51.291Z,92.7
2024-04-05T10:53:33.028Z,75.4
2024-04-05T11:08:33.458Z,52.8
2024-04-05T11:23:36.022Z,52.8
2024-04-05T11:38:35.309Z,38
2024-04-05T11:53:35.569Z,39.3
2024-04-05T12:08:36.546Z,37.9
2024-04-05T12:23:37.434Z,37.9
2024-04-05T12:38:45.777Z,38.3
2024-04-05T12:53:38.335Z,36.6
2024-04-05T13:08:39.116Z,37.4
2024-04-05T13:23:40.450Z,35.8
2024-04-05T13:38:40.989Z,38
2024-04-05T13:53:41.019Z,41.3
2024-04-05T14:08:42.913Z,37.6
2024-04-05T14:23:42.759Z,39.4
2024-04-05T14:38:48.770Z,43.5
2024-04-05T14:53:44.029Z,54.2
2024-04-05T15:08:48.287Z,58.5
2024-04-05T15:23:47.334Z,64.1
2024-04-05T15:39:03.395Z,64.1
2024-04-05T15:53:50.112Z,69.7
2024-04-05T16:08:50.146Z,65.6
2024-04-05T16:23:55.152Z,64.1
2024-04-05T16:38:50.665Z,72.4
2024-04-05T16:53:51.109Z,87.4
2024-04-05T17:08:50.944Z,88.7
2024-04-05T17:24:11.263Z,88.7
2024-04-05T17:38:52.397Z,82.7
2024-04-05T17:54:02.539Z,82.7
2024-04-05T18:08:57.880Z,87.6
2024-04-05T18:23:55.519Z,88.3
2024-04-05T18:38:55.942Z,89.9
2024-04-05T18:53:56.661Z,99.5
2024-04-05T19:08:58.052Z,100
2024-04-05T19:24:07.304Z,100
2024-04-05T19:38:59.692Z,100
2024-04-05T19:53:59.311Z,100
2024-04-05T20:09:01.280Z,100
2024-04-05T20:24:13.229Z,100
2024-04-05T20:39:00.964Z,100
2024-04-05T20:54:02.243Z,100
2024-04-05T21:09:04.000Z,100
2024-04-05T21:24:03.826Z,100
2024-04-05T21:39:04.521Z,100
2024-04-05T21:54:04.847Z,100
2024-04-05T22:00:36.932Z,100
2024-04-05T22:15:37.045Z,100
2024-04-05T22:30:38.296Z,100
2024-04-05T22:45:38.547Z,100
2024-04-05T23:00:39.840Z,100
2024-04-05T23:15:39.393Z,100
2024-04-05T23:30:41.101Z,100
2024-04-05T23:45:42.926Z,100
